sensor_id;sensor_type;location;lat;lon;timestamp;P1;durP1;ratioP1;P2;durP2;ratioP2
41480;SDS011;27217;51.220;5.308;2022-08-19T00:01:49;29.02;;;19.48;;
41480;SDS011;27217;51.220;5.308;2022-08-19T00:04:17;27.40;;;19.10;;
41480;SDS011;27217;51.220;5.308;2022-08-19T00:06:45;28.83;;;21.48;;
41480;SDS011;27217;51.220;5.308;2022-08-19T00:09:12;27.58;;;20.35;;
41480;SDS011;27217;51.220;5.308;2022-08-19T00:11:40;24.98;;;21.30;;
41480;SDS011;27217;51.220;5.308;2022-08-19T00:14:07;24.80;;;20.45;;
41480;SDS011;27217;51.220;5.308;2022-08-19T00:16:35;28.50;;;19.35;;
41480;SDS011;27217;51.220;5.308;2022-08-19T00:19:03;29.95;;;21.50;;
41480;SDS011;27217;51.220;5.308;2022-08-19T00:21:29;24.92;;;19.75;;
41480;SDS011;27217;51.220;5.308;2022-08-19T00:23:56;25.20;;;21.80;;
41480;SDS011;27217;51.220;5.308;2022-08-19T00:26:23;32.72;;;25.42;;
41480;SDS011;27217;51.220;5.308;2022-08-19T00:28:50;33.78;;;25.08;;
41480;SDS011;27217;51.220;5.308;2022-08-19T00:31:16;34.70;;;24.75;;
41480;SDS011;27217;51.220;5.308;2022-08-19T00:33:42;33.88;;;25.17;;
41480;SDS011;27217;51.220;5.308;2022-08-19T00:36:08;33.55;;;25.10;;
41480;SDS011;27217;51.220;5.308;2022-08-19T00:38:37;33.42;;;23.23;;
41480;SDS011;27217;51.220;5.308;2022-08-19T00:41:08;40.67;;;25.10;;
41480;SDS011;27217;51.220;5.308;2022-08-19T00:43:35;37.75;;;26.10;;
41480;SDS011;27217;51.220;5.308;2022-08-19T00:46:03;33.63;;;25.63;;
41480;SDS011;27217;51.220;5.308;2022-08-19T00:48:30;36.30;;;27.20;;
41480;SDS011;27217;51.220;5.308;2022-08-19T00:50:57;37.47;;;26.42;;
41480;SDS011;27217;51.220;5.308;2022-08-19T00:53:24;42.67;;;29.27;;
41480;SDS011;27217;51.220;5.308;2022-08-19T00:55:53;35.72;;;27.08;;
41480;SDS011;27217;51.220;5.308;2022-08-19T00:58:21;35.22;;;27.13;;
41480;SDS011;27217;51.220;5.308;2022-08-19T01:00:52;41.28;;;28.60;;
41480;SDS011;27217;51.220;5.308;2022-08-19T01:03:18;39.17;;;29.48;;
41480;SDS011;27217;51.220;5.308;2022-08-19T01:05:46;40.75;;;29.70;;
41480;SDS011;27217;51.220;5.308;2022-08-19T01:08:14;41.97;;;28.83;;
41480;SDS011;27217;51.220;5.308;2022-08-19T01:10:43;38.72;;;28.92;;
41480;SDS011;27217;51.220;5.308;2022-08-19T01:13:20;42.92;;;29.48;;
41480;SDS011;27217;51.220;5.308;2022-08-19T01:15:50;42.97;;;30.25;;
41480;SDS011;27217;51.220;5.308;2022-08-19T01:18:28;44.83;;;29.42;;
41480;SDS011;27217;51.220;5.308;2022-08-19T01:20:56;41.38;;;30.00;;
41480;SDS011;27217;51.220;5.308;2022-08-19T01:23:25;46.35;;;31.15;;
41480;SDS011;27217;51.220;5.308;2022-08-19T01:26:07;44.40;;;31.27;;
41480;SDS011;27217;51.220;5.308;2022-08-19T01:28:37;47.95;;;32.67;;
41480;SDS011;27217;51.220;5.308;2022-08-19T01:31:04;51.25;;;34.22;;
41480;SDS011;27217;51.220;5.308;2022-08-19T01:33:30;54.00;;;35.13;;
41480;SDS011;27217;51.220;5.308;2022-08-19T01:36:05;60.58;;;38.83;;
41480;SDS011;27217;51.220;5.308;2022-08-19T01:38:36;52.72;;;37.92;;
41480;SDS011;27217;51.220;5.308;2022-08-19T01:41:03;59.40;;;35.92;;
41480;SDS011;27217;51.220;5.308;2022-08-19T01:43:29;59.95;;;38.08;;
41480;SDS011;27217;51.220;5.308;2022-08-19T01:45:55;59.00;;;37.28;;
41480;SDS011;27217;51.220;5.308;2022-08-19T01:48:21;56.10;;;35.58;;
41480;SDS011;27217;51.220;5.308;2022-08-19T01:50:48;53.20;;;36.75;;
41480;SDS011;27217;51.220;5.308;2022-08-19T01:53:15;56.80;;;36.38;;
41480;SDS011;27217;51.220;5.308;2022-08-19T01:55:41;63.60;;;36.10;;
41480;SDS011;27217;51.220;5.308;2022-08-19T01:58:12;55.65;;;36.17;;
41480;SDS011;27217;51.220;5.308;2022-08-19T02:00:45;59.30;;;37.22;;
41480;SDS011;27217;51.220;5.308;2022-08-19T02:03:11;63.38;;;38.65;;
41480;SDS011;27217;51.220;5.308;2022-08-19T02:05:38;63.88;;;37.95;;
41480;SDS011;27217;51.220;5.308;2022-08-19T02:08:06;59.67;;;36.20;;
41480;SDS011;27217;51.220;5.308;2022-08-19T02:10:33;60.05;;;37.38;;
41480;SDS011;27217;51.220;5.308;2022-08-19T02:13:03;65.40;;;40.33;;
41480;SDS011;27217;51.220;5.308;2022-08-19T02:15:29;58.05;;;36.78;;
41480;SDS011;27217;51.220;5.308;2022-08-19T02:17:55;63.08;;;36.47;;
41480;SDS011;27217;51.220;5.308;2022-08-19T02:20:21;56.33;;;35.25;;
41480;SDS011;27217;51.220;5.308;2022-08-19T02:22:47;61.65;;;35.95;;
41480;SDS011;27217;51.220;5.308;2022-08-19T02:25:13;61.08;;;35.95;;
41480;SDS011;27217;51.220;5.308;2022-08-19T02:27:40;59.22;;;35.83;;
41480;SDS011;27217;51.220;5.308;2022-08-19T02:30:08;54.47;;;36.15;;
41480;SDS011;27217;51.220;5.308;2022-08-19T02:32:37;64.68;;;37.15;;
41480;SDS011;27217;51.220;5.308;2022-08-19T02:35:04;65.35;;;38.75;;
41480;SDS011;27217;51.220;5.308;2022-08-19T02:37:30;69.90;;;38.95;;
41480;SDS011;27217;51.220;5.308;2022-08-19T02:40:14;68.10;;;38.85;;
41480;SDS011;27217;51.220;5.308;2022-08-19T02:42:42;76.35;;;40.78;;
41480;SDS011;27217;51.220;5.308;2022-08-19T02:45:08;79.38;;;42.60;;
41480;SDS011;27217;51.220;5.308;2022-08-19T02:47:36;83.10;;;44.15;;
41480;SDS011;27217;51.220;5.308;2022-08-19T02:50:02;82.57;;;43.00;;
41480;SDS011;27217;51.220;5.308;2022-08-19T02:52:29;85.70;;;45.35;;
41480;SDS011;27217;51.220;5.308;2022-08-19T02:54:57;86.30;;;45.00;;
41480;SDS011;27217;51.220;5.308;2022-08-19T02:57:23;81.00;;;44.58;;
41480;SDS011;27217;51.220;5.308;2022-08-19T02:59:49;84.30;;;42.63;;
41480;SDS011;27217;51.220;5.308;2022-08-19T03:02:15;83.28;;;42.92;;
41480;SDS011;27217;51.220;5.308;2022-08-19T03:04:41;82.90;;;42.88;;
41480;SDS011;27217;51.220;5.308;2022-08-19T03:07:07;80.18;;;42.95;;
41480;SDS011;27217;51.220;5.308;2022-08-19T03:09:35;85.25;;;45.50;;
41480;SDS011;27217;51.220;5.308;2022-08-19T03:12:03;87.95;;;44.78;;
41480;SDS011;27217;51.220;5.308;2022-08-19T03:14:30;87.85;;;44.17;;
41480;SDS011;27217;51.220;5.308;2022-08-19T03:17:00;85.35;;;42.85;;
41480;SDS011;27217;51.220;5.308;2022-08-19T03:19:26;86.85;;;44.50;;
41480;SDS011;27217;51.220;5.308;2022-08-19T03:21:56;89.47;;;44.50;;
41480;SDS011;27217;51.220;5.308;2022-08-19T03:24:23;94.90;;;45.58;;
41480;SDS011;27217;51.220;5.308;2022-08-19T03:26:50;97.15;;;47.35;;
41480;SDS011;27217;51.220;5.308;2022-08-19T03:29:20;92.68;;;44.22;;
41480;SDS011;27217;51.220;5.308;2022-08-19T03:31:46;96.30;;;46.05;;
41480;SDS011;27217;51.220;5.308;2022-08-19T03:34:13;98.13;;;46.58;;
41480;SDS011;27217;51.220;5.308;2022-08-19T03:36:45;88.07;;;45.03;;
41480;SDS011;27217;51.220;5.308;2022-08-19T03:39:11;90.28;;;45.55;;
41480;SDS011;27217;51.220;5.308;2022-08-19T03:41:39;94.70;;;45.25;;
41480;SDS011;27217;51.220;5.308;2022-08-19T03:44:07;90.85;;;41.80;;
41480;SDS011;27217;51.220;5.308;2022-08-19T03:46:34;88.88;;;42.90;;
41480;SDS011;27217;51.220;5.308;2022-08-19T03:49:02;89.57;;;42.80;;
41480;SDS011;27217;51.220;5.308;2022-08-19T03:51:33;89.20;;;42.13;;
41480;SDS011;27217;51.220;5.308;2022-08-19T03:54:02;92.68;;;45.15;;
41480;SDS011;27217;51.220;5.308;2022-08-19T03:56:36;97.15;;;46.25;;
41480;SDS011;27217;51.220;5.308;2022-08-19T03:59:04;97.20;;;43.78;;
41480;SDS011;27217;51.220;5.308;2022-08-19T04:01:32;95.47;;;43.95;;
41480;SDS011;27217;51.220;5.308;2022-08-19T04:03:58;98.18;;;46.65;;
41480;SDS011;27217;51.220;5.308;2022-08-19T04:06:27;93.78;;;43.22;;
41480;SDS011;27217;51.220;5.308;2022-08-19T04:08:56;86.00;;;41.95;;
41480;SDS011;27217;51.220;5.308;2022-08-19T04:11:24;96.18;;;44.13;;
41480;SDS011;27217;51.220;5.308;2022-08-19T04:13:52;91.40;;;43.13;;
41480;SDS011;27217;51.220;5.308;2022-08-19T04:16:20;91.60;;;44.20;;
41480;SDS011;27217;51.220;5.308;2022-08-19T04:18:48;101.55;;;46.35;;
41480;SDS011;27217;51.220;5.308;2022-08-19T04:21:18;100.63;;;47.15;;
41480;SDS011;27217;51.220;5.308;2022-08-19T04:23:46;99.75;;;46.28;;
41480;SDS011;27217;51.220;5.308;2022-08-19T04:26:13;94.32;;;46.28;;
41480;SDS011;27217;51.220;5.308;2022-08-19T04:28:40;96.97;;;46.97;;
41480;SDS011;27217;51.220;5.308;2022-08-19T04:31:12;95.55;;;46.80;;
41480;SDS011;27217;51.220;5.308;2022-08-19T04:33:40;105.15;;;46.38;;
41480;SDS011;27217;51.220;5.308;2022-08-19T04:36:06;107.35;;;47.88;;
41480;SDS011;27217;51.220;5.308;2022-08-19T04:38:32;99.65;;;45.33;;
41480;SDS011;27217;51.220;5.308;2022-08-19T04:40:59;100.70;;;45.83;;
41480;SDS011;27217;51.220;5.308;2022-08-19T04:43:44;102.82;;;46.58;;
41480;SDS011;27217;51.220;5.308;2022-08-19T04:46:13;101.07;;;46.78;;
41480;SDS011;27217;51.220;5.308;2022-08-19T04:48:39;98.90;;;46.97;;
41480;SDS011;27217;51.220;5.308;2022-08-19T04:51:06;93.05;;;45.47;;
41480;SDS011;27217;51.220;5.308;2022-08-19T04:53:35;87.97;;;43.55;;
41480;SDS011;27217;51.220;5.308;2022-08-19T04:56:07;93.28;;;43.58;;
41480;SDS011;27217;51.220;5.308;2022-08-19T04:58:39;97.53;;;44.35;;
41480;SDS011;27217;51.220;5.308;2022-08-19T05:01:07;98.75;;;44.80;;
41480;SDS011;27217;51.220;5.308;2022-08-19T05:03:35;97.72;;;45.33;;
41480;SDS011;27217;51.220;5.308;2022-08-19T05:06:08;102.18;;;45.05;;
41480;SDS011;27217;51.220;5.308;2022-08-19T05:08:37;100.72;;;47.30;;
41480;SDS011;27217;51.220;5.308;2022-08-19T05:11:22;110.38;;;48.42;;
41480;SDS011;27217;51.220;5.308;2022-08-19T05:13:51;107.93;;;45.65;;
41480;SDS011;27217;51.220;5.308;2022-08-19T05:16:18;106.75;;;47.03;;
41480;SDS011;27217;51.220;5.308;2022-08-19T05:18:45;108.55;;;46.28;;
41480;SDS011;27217;51.220;5.308;2022-08-19T05:21:30;100.05;;;46.33;;
41480;SDS011;27217;51.220;5.308;2022-08-19T05:24:15;96.43;;;42.13;;
41480;SDS011;27217;51.220;5.308;2022-08-19T05:26:43;91.40;;;43.08;;
41480;SDS011;27217;51.220;5.308;2022-08-19T05:29:11;81.43;;;40.15;;
41480;SDS011;27217;51.220;5.308;2022-08-19T05:31:39;83.38;;;38.40;;
41480;SDS011;27217;51.220;5.308;2022-08-19T05:34:05;81.43;;;38.20;;
41480;SDS011;27217;51.220;5.308;2022-08-19T05:36:37;81.30;;;36.83;;
41480;SDS011;27217;51.220;5.308;2022-08-19T05:39:06;81.18;;;37.50;;
41480;SDS011;27217;51.220;5.308;2022-08-19T05:41:34;78.85;;;36.45;;
41480;SDS011;27217;51.220;5.308;2022-08-19T05:44:01;72.63;;;34.83;;
41480;SDS011;27217;51.220;5.308;2022-08-19T05:46:31;76.22;;;35.75;;
41480;SDS011;27217;51.220;5.308;2022-08-19T05:48:57;77.30;;;37.83;;
41480;SDS011;27217;51.220;5.308;2022-08-19T05:51:24;83.32;;;37.28;;
41480;SDS011;27217;51.220;5.308;2022-08-19T05:53:51;73.80;;;31.73;;
41480;SDS011;27217;51.220;5.308;2022-08-19T05:56:17;74.43;;;35.15;;
41480;SDS011;27217;51.220;5.308;2022-08-19T05:58:44;77.78;;;35.17;;
41480;SDS011;27217;51.220;5.308;2022-08-19T06:01:15;72.85;;;34.00;;
41480;SDS011;27217;51.220;5.308;2022-08-19T06:03:43;77.18;;;35.03;;
41480;SDS011;27217;51.220;5.308;2022-08-19T06:06:10;73.53;;;34.70;;
41480;SDS011;27217;51.220;5.308;2022-08-19T06:08:38;66.95;;;31.67;;
41480;SDS011;27217;51.220;5.308;2022-08-19T06:11:21;62.08;;;30.23;;
41480;SDS011;27217;51.220;5.308;2022-08-19T06:13:50;74.55;;;33.60;;
41480;SDS011;27217;51.220;5.308;2022-08-19T06:16:18;65.70;;;30.55;;
41480;SDS011;27217;51.220;5.308;2022-08-19T06:18:49;75.93;;;32.90;;
41480;SDS011;27217;51.220;5.308;2022-08-19T06:21:16;67.90;;;31.38;;
41480;SDS011;27217;51.220;5.308;2022-08-19T06:23:46;65.30;;;30.65;;
41480;SDS011;27217;51.220;5.308;2022-08-19T06:26:14;75.32;;;30.15;;
41480;SDS011;27217;51.220;5.308;2022-08-19T06:28:40;69.10;;;31.92;;
41480;SDS011;27217;51.220;5.308;2022-08-19T06:31:10;63.63;;;30.70;;
41480;SDS011;27217;51.220;5.308;2022-08-19T06:33:36;62.28;;;29.33;;
41480;SDS011;27217;51.220;5.308;2022-08-19T06:36:02;64.20;;;32.30;;
41480;SDS011;27217;51.220;5.308;2022-08-19T06:38:29;62.92;;;31.30;;
41480;SDS011;27217;51.220;5.308;2022-08-19T06:41:02;58.95;;;29.13;;
41480;SDS011;27217;51.220;5.308;2022-08-19T06:43:28;50.85;;;27.42;;
41480;SDS011;27217;51.220;5.308;2022-08-19T06:45:55;57.22;;;27.05;;
41480;SDS011;27217;51.220;5.308;2022-08-19T06:48:21;56.00;;;28.48;;
41480;SDS011;27217;51.220;5.308;2022-08-19T06:50:47;63.08;;;29.25;;
41480;SDS011;27217;51.220;5.308;2022-08-19T06:53:15;56.47;;;28.50;;
41480;SDS011;27217;51.220;5.308;2022-08-19T06:55:40;53.60;;;26.58;;
41480;SDS011;27217;51.220;5.308;2022-08-19T06:58:06;47.17;;;25.50;;
41480;SDS011;27217;51.220;5.308;2022-08-19T07:00:34;48.08;;;25.42;;
41480;SDS011;27217;51.220;5.308;2022-08-19T07:03:00;50.63;;;24.30;;
41480;SDS011;27217;51.220;5.308;2022-08-19T07:05:26;48.67;;;25.98;;
41480;SDS011;27217;51.220;5.308;2022-08-19T07:07:51;47.72;;;23.23;;
41480;SDS011;27217;51.220;5.308;2022-08-19T07:10:17;54.38;;;25.38;;
41480;SDS011;27217;51.220;5.308;2022-08-19T07:12:44;46.42;;;21.33;;
41480;SDS011;27217;51.220;5.308;2022-08-19T07:15:10;42.88;;;21.60;;
41480;SDS011;27217;51.220;5.308;2022-08-19T07:17:36;41.33;;;20.20;;
41480;SDS011;27217;51.220;5.308;2022-08-19T07:20:04;44.03;;;20.88;;
41480;SDS011;27217;51.220;5.308;2022-08-19T07:22:38;38.30;;;19.80;;
41480;SDS011;27217;51.220;5.308;2022-08-19T07:25:05;42.20;;;18.98;;
41480;SDS011;27217;51.220;5.308;2022-08-19T07:27:32;39.80;;;19.05;;
41480;SDS011;27217;51.220;5.308;2022-08-19T07:29:59;35.00;;;18.50;;
41480;SDS011;27217;51.220;5.308;2022-08-19T07:32:25;35.88;;;17.98;;
41480;SDS011;27217;51.220;5.308;2022-08-19T07:34:51;33.92;;;18.10;;
41480;SDS011;27217;51.220;5.308;2022-08-19T07:37:18;29.80;;;16.52;;
41480;SDS011;27217;51.220;5.308;2022-08-19T07:39:44;34.80;;;17.50;;
41480;SDS011;27217;51.220;5.308;2022-08-19T07:42:10;33.70;;;18.77;;
41480;SDS011;27217;51.220;5.308;2022-08-19T07:44:36;42.28;;;16.48;;
41480;SDS011;27217;51.220;5.308;2022-08-19T07:47:03;30.45;;;15.68;;
41480;SDS011;27217;51.220;5.308;2022-08-19T07:49:30;34.33;;;16.50;;
41480;SDS011;27217;51.220;5.308;2022-08-19T07:51:57;31.55;;;14.45;;
41480;SDS011;27217;51.220;5.308;2022-08-19T07:54:27;38.70;;;17.87;;
41480;SDS011;27217;51.220;5.308;2022-08-19T07:56:59;27.23;;;15.15;;
41480;SDS011;27217;51.220;5.308;2022-08-19T07:59:25;31.50;;;15.43;;
41480;SDS011;27217;51.220;5.308;2022-08-19T08:01:50;31.20;;;17.88;;
41480;SDS011;27217;51.220;5.308;2022-08-19T08:04:17;33.47;;;15.70;;
41480;SDS011;27217;51.220;5.308;2022-08-19T08:07:02;33.22;;;17.23;;
41480;SDS011;27217;51.220;5.308;2022-08-19T08:09:47;28.52;;;17.35;;
41480;SDS011;27217;51.220;5.308;2022-08-19T08:12:17;28.98;;;17.33;;
41480;SDS011;27217;51.220;5.308;2022-08-19T08:14:49;29.05;;;18.55;;
41480;SDS011;27217;51.220;5.308;2022-08-19T08:17:18;33.10;;;17.05;;
41480;SDS011;27217;51.220;5.308;2022-08-19T08:19:45;32.35;;;17.30;;
41480;SDS011;27217;51.220;5.308;2022-08-19T08:22:14;30.15;;;15.73;;
41480;SDS011;27217;51.220;5.308;2022-08-19T08:25:16;27.42;;;14.00;;
41480;SDS011;27217;51.220;5.308;2022-08-19T08:27:45;31.15;;;14.55;;
41480;SDS011;27217;51.220;5.308;2022-08-19T08:30:13;27.40;;;13.85;;
41480;SDS011;27217;51.220;5.308;2022-08-19T08:32:40;25.70;;;13.98;;
41480;SDS011;27217;51.220;5.308;2022-08-19T08:35:09;21.17;;;12.70;;
41480;SDS011;27217;51.220;5.308;2022-08-19T08:37:38;25.67;;;12.73;;
41480;SDS011;27217;51.220;5.308;2022-08-19T08:40:05;22.60;;;11.40;;
41480;SDS011;27217;51.220;5.308;2022-08-19T08:42:40;21.63;;;11.68;;
41480;SDS011;27217;51.220;5.308;2022-08-19T08:45:16;27.88;;;13.02;;
41480;SDS011;27217;51.220;5.308;2022-08-19T08:47:44;23.42;;;10.90;;
41480;SDS011;27217;51.220;5.308;2022-08-19T08:50:16;23.85;;;10.38;;
41480;SDS011;27217;51.220;5.308;2022-08-19T08:52:48;17.92;;;9.75;;
41480;SDS011;27217;51.220;5.308;2022-08-19T08:55:20;19.60;;;9.80;;
41480;SDS011;27217;51.220;5.308;2022-08-19T09:00:22;26.25;;;11.00;;
41480;SDS011;27217;51.220;5.308;2022-08-19T09:02:55;21.42;;;9.75;;
41480;SDS011;27217;51.220;5.308;2022-08-19T09:05:22;21.65;;;9.48;;
41480;SDS011;27217;51.220;5.308;2022-08-19T09:08:00;18.25;;;9.85;;
41480;SDS011;27217;51.220;5.308;2022-08-19T09:10:44;18.98;;;8.02;;
41480;SDS011;27217;51.220;5.308;2022-08-19T09:13:26;16.25;;;8.02;;
41480;SDS011;27217;51.220;5.308;2022-08-19T09:16:09;18.42;;;7.60;;
41480;SDS011;27217;51.220;5.308;2022-08-19T09:18:39;19.90;;;7.40;;
41480;SDS011;27217;51.220;5.308;2022-08-19T09:21:07;18.65;;;7.93;;
41480;SDS011;27217;51.220;5.308;2022-08-19T09:23:33;14.65;;;7.40;;
41480;SDS011;27217;51.220;5.308;2022-08-19T09:26:00;16.80;;;6.97;;
41480;SDS011;27217;51.220;5.308;2022-08-19T09:28:26;12.80;;;6.18;;
41480;SDS011;27217;51.220;5.308;2022-08-19T09:30:54;22.50;;;7.50;;
41480;SDS011;27217;51.220;5.308;2022-08-19T09:33:19;17.13;;;7.10;;
41480;SDS011;27217;51.220;5.308;2022-08-19T09:35:45;12.73;;;6.60;;
41480;SDS011;27217;51.220;5.308;2022-08-19T09:38:12;16.30;;;6.72;;
41480;SDS011;27217;51.220;5.308;2022-08-19T09:40:37;9.70;;;5.50;;
41480;SDS011;27217;51.220;5.308;2022-08-19T09:43:03;12.65;;;5.70;;
41480;SDS011;27217;51.220;5.308;2022-08-19T09:45:30;15.50;;;6.88;;
41480;SDS011;27217;51.220;5.308;2022-08-19T09:47:56;16.63;;;7.50;;
41480;SDS011;27217;51.220;5.308;2022-08-19T09:50:22;12.70;;;6.50;;
41480;SDS011;27217;51.220;5.308;2022-08-19T09:52:49;16.48;;;6.30;;
41480;SDS011;27217;51.220;5.308;2022-08-19T09:55:17;22.50;;;7.20;;
41480;SDS011;27217;51.220;5.308;2022-08-19T09:57:43;11.32;;;5.97;;
41480;SDS011;27217;51.220;5.308;2022-08-19T10:00:09;10.23;;;5.60;;
41480;SDS011;27217;51.220;5.308;2022-08-19T10:02:36;12.68;;;6.22;;
41480;SDS011;27217;51.220;5.308;2022-08-19T10:05:01;12.05;;;6.45;;
41480;SDS011;27217;51.220;5.308;2022-08-19T10:07:46;12.30;;;6.50;;
41480;SDS011;27217;51.220;5.308;2022-08-19T10:10:12;13.25;;;6.38;;
41480;SDS011;27217;51.220;5.308;2022-08-19T10:12:38;11.38;;;6.05;;
41480;SDS011;27217;51.220;5.308;2022-08-19T10:15:05;15.20;;;6.15;;
41480;SDS011;27217;51.220;5.308;2022-08-19T10:17:32;12.75;;;6.43;;
41480;SDS011;27217;51.220;5.308;2022-08-19T10:20:00;11.30;;;6.65;;
41480;SDS011;27217;51.220;5.308;2022-08-19T10:22:27;18.90;;;6.50;;
41480;SDS011;27217;51.220;5.308;2022-08-19T10:24:53;12.40;;;7.40;;
41480;SDS011;27217;51.220;5.308;2022-08-19T10:27:19;13.63;;;6.47;;
41480;SDS011;27217;51.220;5.308;2022-08-19T10:29:45;15.07;;;6.57;;
41480;SDS011;27217;51.220;5.308;2022-08-19T10:32:12;13.50;;;7.15;;
41480;SDS011;27217;51.220;5.308;2022-08-19T10:34:38;15.48;;;6.88;;
41480;SDS011;27217;51.220;5.308;2022-08-19T10:37:05;15.25;;;6.72;;
41480;SDS011;27217;51.220;5.308;2022-08-19T10:39:31;16.38;;;7.07;;
41480;SDS011;27217;51.220;5.308;2022-08-19T10:41:58;13.15;;;6.03;;
41480;SDS011;27217;51.220;5.308;2022-08-19T10:44:25;9.10;;;5.35;;
41480;SDS011;27217;51.220;5.308;2022-08-19T10:46:50;9.73;;;5.10;;
41480;SDS011;27217;51.220;5.308;2022-08-19T10:49:17;10.07;;;6.35;;
41480;SDS011;27217;51.220;5.308;2022-08-19T10:51:44;9.20;;;5.50;;
41480;SDS011;27217;51.220;5.308;2022-08-19T10:54:28;7.65;;;5.55;;
41480;SDS011;27217;51.220;5.308;2022-08-19T10:57:12;13.65;;;5.47;;
41480;SDS011;27217;51.220;5.308;2022-08-19T10:59:40;7.07;;;4.60;;
41480;SDS011;27217;51.220;5.308;2022-08-19T11:02:06;10.43;;;5.82;;
41480;SDS011;27217;51.220;5.308;2022-08-19T11:04:38;11.65;;;5.35;;
41480;SDS011;27217;51.220;5.308;2022-08-19T11:07:05;14.73;;;5.10;;
41480;SDS011;27217;51.220;5.308;2022-08-19T11:09:31;9.38;;;5.43;;
41480;SDS011;27217;51.220;5.308;2022-08-19T11:12:02;9.77;;;5.75;;
41480;SDS011;27217;51.220;5.308;2022-08-19T11:14:28;9.77;;;4.88;;
41480;SDS011;27217;51.220;5.308;2022-08-19T11:16:55;11.45;;;5.40;;
41480;SDS011;27217;51.220;5.308;2022-08-19T11:19:22;13.02;;;6.10;;
41480;SDS011;27217;51.220;5.308;2022-08-19T11:21:49;9.20;;;5.00;;
41480;SDS011;27217;51.220;5.308;2022-08-19T11:24:17;9.70;;;5.30;;
41480;SDS011;27217;51.220;5.308;2022-08-19T11:26:49;8.70;;;5.40;;
41480;SDS011;27217;51.220;5.308;2022-08-19T11:29:18;10.23;;;6.20;;
41480;SDS011;27217;51.220;5.308;2022-08-19T11:31:46;12.50;;;5.18;;
41480;SDS011;27217;51.220;5.308;2022-08-19T11:34:15;10.48;;;5.72;;
41480;SDS011;27217;51.220;5.308;2022-08-19T11:36:47;11.50;;;5.57;;
41480;SDS011;27217;51.220;5.308;2022-08-19T11:39:15;11.60;;;6.82;;
41480;SDS011;27217;51.220;5.308;2022-08-19T11:41:41;15.80;;;6.63;;
41480;SDS011;27217;51.220;5.308;2022-08-19T11:44:07;11.63;;;6.18;;
41480;SDS011;27217;51.220;5.308;2022-08-19T11:46:34;12.07;;;5.82;;
41480;SDS011;27217;51.220;5.308;2022-08-19T11:49:00;12.07;;;7.28;;
41480;SDS011;27217;51.220;5.308;2022-08-19T11:51:28;9.00;;;6.40;;
41480;SDS011;27217;51.220;5.308;2022-08-19T11:53:55;10.15;;;6.32;;
41480;SDS011;27217;51.220;5.308;2022-08-19T11:56:22;8.57;;;5.60;;
41480;SDS011;27217;51.220;5.308;2022-08-19T11:58:49;14.35;;;6.00;;
41480;SDS011;27217;51.220;5.308;2022-08-19T12:01:16;8.82;;;5.13;;
41480;SDS011;27217;51.220;5.308;2022-08-19T12:03:44;8.05;;;5.57;;
41480;SDS011;27217;51.220;5.308;2022-08-19T12:06:13;9.35;;;5.30;;
41480;SDS011;27217;51.220;5.308;2022-08-19T12:08:41;5.63;;;4.35;;
41480;SDS011;27217;51.220;5.308;2022-08-19T12:11:08;8.25;;;4.65;;
41480;SDS011;27217;51.220;5.308;2022-08-19T12:13:34;6.80;;;5.07;;
41480;SDS011;27217;51.220;5.308;2022-08-19T12:16:06;11.20;;;4.43;;
41480;SDS011;27217;51.220;5.308;2022-08-19T12:18:37;4.43;;;4.00;;
41480;SDS011;27217;51.220;5.308;2022-08-19T12:21:06;7.57;;;4.65;;
41480;SDS011;27217;51.220;5.308;2022-08-19T12:23:35;10.23;;;4.95;;
41480;SDS011;27217;51.220;5.308;2022-08-19T12:26:02;6.45;;;4.55;;
41480;SDS011;27217;51.220;5.308;2022-08-19T12:28:28;6.63;;;4.63;;
41480;SDS011;27217;51.220;5.308;2022-08-19T12:30:55;6.90;;;3.80;;
41480;SDS011;27217;51.220;5.308;2022-08-19T12:33:22;4.88;;;4.38;;
41480;SDS011;27217;51.220;5.308;2022-08-19T12:35:50;6.13;;;4.45;;
41480;SDS011;27217;51.220;5.308;2022-08-19T12:38:17;10.57;;;4.60;;
41480;SDS011;27217;51.220;5.308;2022-08-19T12:40:46;6.05;;;4.35;;
41480;SDS011;27217;51.220;5.308;2022-08-19T12:43:13;6.50;;;5.25;;
41480;SDS011;27217;51.220;5.308;2022-08-19T12:45:40;10.82;;;5.30;;
41480;SDS011;27217;51.220;5.308;2022-08-19T12:48:07;8.10;;;5.20;;
41480;SDS011;27217;51.220;5.308;2022-08-19T12:50:34;7.63;;;4.82;;
41480;SDS011;27217;51.220;5.308;2022-08-19T12:53:00;7.15;;;4.80;;
41480;SDS011;27217;51.220;5.308;2022-08-19T12:55:26;15.45;;;4.20;;
41480;SDS011;27217;51.220;5.308;2022-08-19T12:57:53;8.40;;;4.05;;
41480;SDS011;27217;51.220;5.308;2022-08-19T13:00:20;6.20;;;4.22;;
41480;SDS011;27217;51.220;5.308;2022-08-19T13:02:47;6.80;;;3.95;;
41480;SDS011;27217;51.220;5.308;2022-08-19T13:05:16;5.78;;;3.92;;
41480;SDS011;27217;51.220;5.308;2022-08-19T13:07:47;8.05;;;4.88;;
41480;SDS011;27217;51.220;5.308;2022-08-19T13:10:16;8.63;;;4.80;;
41480;SDS011;27217;51.220;5.308;2022-08-19T13:12:45;8.65;;;4.50;;
41480;SDS011;27217;51.220;5.308;2022-08-19T13:15:13;11.13;;;5.03;;
41480;SDS011;27217;51.220;5.308;2022-08-19T13:17:40;5.70;;;4.32;;
41480;SDS011;27217;51.220;5.308;2022-08-19T13:20:07;10.35;;;4.78;;
41480;SDS011;27217;51.220;5.308;2022-08-19T13:22:35;8.02;;;5.07;;
41480;SDS011;27217;51.220;5.308;2022-08-19T13:25:02;16.42;;;6.53;;
41480;SDS011;27217;51.220;5.308;2022-08-19T13:27:30;10.15;;;5.07;;
41480;SDS011;27217;51.220;5.308;2022-08-19T13:29:56;9.23;;;5.05;;
41480;SDS011;27217;51.220;5.308;2022-08-19T13:32:40;6.22;;;4.60;;
41480;SDS011;27217;51.220;5.308;2022-08-19T13:35:25;6.40;;;4.55;;
41480;SDS011;27217;51.220;5.308;2022-08-19T13:37:50;10.57;;;4.93;;
41480;SDS011;27217;51.220;5.308;2022-08-19T13:40:18;14.82;;;5.43;;
41480;SDS011;27217;51.220;5.308;2022-08-19T13:42:48;7.78;;;4.40;;
41480;SDS011;27217;51.220;5.308;2022-08-19T13:45:16;11.85;;;5.65;;
41480;SDS011;27217;51.220;5.308;2022-08-19T13:47:55;7.72;;;4.20;;
41480;SDS011;27217;51.220;5.308;2022-08-19T13:50:24;8.38;;;4.30;;
41480;SDS011;27217;51.220;5.308;2022-08-19T13:52:56;7.90;;;4.43;;
41480;SDS011;27217;51.220;5.308;2022-08-19T13:55:23;7.97;;;4.90;;
41480;SDS011;27217;51.220;5.308;2022-08-19T13:57:50;8.98;;;4.40;;
41480;SDS011;27217;51.220;5.308;2022-08-19T14:00:18;6.90;;;3.78;;
41480;SDS011;27217;51.220;5.308;2022-08-19T14:02:46;5.40;;;3.92;;
41480;SDS011;27217;51.220;5.308;2022-08-19T14:05:14;10.68;;;4.90;;
41480;SDS011;27217;51.220;5.308;2022-08-19T14:07:41;6.55;;;3.55;;
41480;SDS011;27217;51.220;5.308;2022-08-19T14:10:08;7.15;;;4.30;;
41480;SDS011;27217;51.220;5.308;2022-08-19T14:12:35;5.57;;;3.80;;
41480;SDS011;27217;51.220;5.308;2022-08-19T14:15:02;5.85;;;3.72;;
41480;SDS011;27217;51.220;5.308;2022-08-19T14:17:29;6.60;;;4.28;;
41480;SDS011;27217;51.220;5.308;2022-08-19T14:19:58;7.68;;;4.38;;
41480;SDS011;27217;51.220;5.308;2022-08-19T14:22:28;6.63;;;4.05;;
41480;SDS011;27217;51.220;5.308;2022-08-19T14:24:56;7.13;;;4.18;;
41480;SDS011;27217;51.220;5.308;2022-08-19T14:27:22;5.78;;;4.05;;
41480;SDS011;27217;51.220;5.308;2022-08-19T14:29:50;11.38;;;4.65;;
41480;SDS011;27217;51.220;5.308;2022-08-19T14:32:20;13.10;;;4.38;;
41480;SDS011;27217;51.220;5.308;2022-08-19T14:34:46;3.33;;;2.63;;
41480;SDS011;27217;51.220;5.308;2022-08-19T14:37:13;2.95;;;2.50;;
41480;SDS011;27217;51.220;5.308;2022-08-19T14:39:42;5.35;;;2.97;;